Time;durP1;ratioP1;P1;durP2;ratioP2;P2;SDS_P1;SDS_P2;PMS_P1;PMS_P2;Temp;Humidity;BMP_temperature;BMP_pressure;BME280_temperature;BME280_humidity;BME280_pressure;Samples;Min_cycle;Max_cycle;Signal;HPM_P1;HPM_P2
2023/03/19 00:02:00;;;;;;;;;;;;;;;7.10;78.72;101050.75;5028022;28;20341;-69
2023/03/19 00:04:26;;;;;;;;;;;;;;;7.10;78.57;101053.34;5016775;28;19926;-69
2023/03/19 00:06:51;;;;;;;;;;;;;;;7.11;77.75;101055.97;5009344;28;19914;-69
2023/03/19 00:09:18;;;;;;;;;;;;;;;7.17;78.11;101052.03;5016289;28;19940;-67
2023/03/19 00:11:43;;;;;;;;;;;;;;;7.15;77.10;101056.19;5018778;28;19960;-68
2023/03/19 00:14:09;;;;;;;;;;;;;;;7.02;76.79;101057.13;5087560;28;20333;-68
2023/03/19 00:16:35;;;;;;;;;;;;;;;7.00;77.22;101045.88;5081840;28;19916;-68
2023/03/19 00:19:01;;;;;;;;;;;;;;;7.06;77.26;101051.38;5100826;28;19920;-68
2023/03/19 00:21:27;;;;;;;;;;;;;;;7.00;76.98;101040.75;5103072;28;19919;-67
2023/03/19 00:23:52;;;;;;;;;;;;;;;7.02;76.94;101052.88;5104147;28;19923;-67
2023/03/19 00:26:18;;;;;;;;;;;;;;;7.01;75.90;101055.34;5101396;28;20392;-68
2023/03/19 00:28:43;;;;;;;;;;;;;;;6.99;76.09;101057.84;5105627;28;19964;-67
2023/03/19 00:31:11;;;;;;;;;;;;;;;7.05;77.13;101047.94;5112233;28;19916;-67
2023/03/19 00:33:36;;;;;;;;;;;;;;;7.11;77.01;101047.41;5111873;28;19944;-68
2023/03/19 00:36:02;;;;;;;;;;;;;;;7.17;77.08;101047.78;5111732;28;20014;-68
2023/03/19 00:38:28;;;;;;;;;;;;;;;7.18;77.03;101044.41;5111921;28;19919;-68
2023/03/19 00:40:53;;;;;;;;;;;;;;;7.20;76.97;101044.50;5111822;28;19916;-68
2023/03/19 00:43:18;;;;;;;;;;;;;;;7.27;77.36;101041.50;5112436;28;19919;-67
2023/03/19 00:45:44;;;;;;;;;;;;;;;7.35;77.31;101037.72;5112236;28;19946;-68
2023/03/19 00:48:09;;;;;;;;;;;;;;;7.40;77.34;101036.31;5110818;28;19918;-67
2023/03/19 00:50:35;;;;;;;;;;;;;;;7.44;77.07;101035.69;5100529;28;19915;-68
2023/03/19 00:53:00;;;;;;;;;;;;;;;7.47;76.55;101034.97;5101094;28;19919;-68
2023/03/19 00:55:27;;;;;;;;;;;;;;;7.46;76.17;101035.78;5101252;28;19919;-67
2023/03/19 00:57:53;;;;;;;;;;;;;;;7.48;77.14;101046.13;5094414;28;20018;-68
2023/03/19 01:00:19;;;;;;;;;;;;;;;7.47;77.50;101032.41;5091447;28;20010;-68
2023/03/19 01:02:44;;;;;;;;;;;;;;;7.42;76.67;101029.56;5092864;28;19925;-68
2023/03/19 01:05:12;;;;;;;;;;;;;;;7.41;77.53;101029.47;5115699;27;20675;-67
2023/03/19 01:07:37;;;;;;;;;;;;;;;7.37;77.66;101030.97;5122275;27;19976;-67
2023/03/19 01:10:03;;;;;;;;;;;;;;;7.25;78.42;101032.81;5118959;27;19911;-67
2023/03/19 01:12:28;;;;;;;;;;;;;;;7.22;78.18;101025.81;5110732;28;19915;-67
2023/03/19 01:14:53;;;;;;;;;;;;;;;7.17;78.45;101029.81;5111490;28;20404;-68
2023/03/19 01:17:19;;;;;;;;;;;;;;;7.21;78.61;101031.75;5111270;28;20548;-68
2023/03/19 01:19:44;;;;;;;;;;;;;;;7.23;79.46;101037.88;5111088;28;19923;-68
2023/03/19 01:22:10;;;;;;;;;;;;;;;7.24;78.85;101031.03;5111519;28;19942;-67
2023/03/19 01:24:36;;;;;;;;;;;;;;;7.29;79.59;101027.97;5111455;28;19911;-68
2023/03/19 01:27:02;;;;;;;;;;;;;;;7.28;79.08;101026.19;5111449;28;20377;-67
2023/03/19 01:29:27;;;;;;;;;;;;;;;7.28;79.32;101023.63;5111126;28;19933;-67
2023/03/19 01:31:53;;;;;;;;;;;;;;;7.25;78.99;101031.16;5111228;28;19914;-68
2023/03/19 01:34:18;;;;;;;;;;;;;;;7.33;78.61;101035.84;5111194;28;20045;-68
2023/03/19 01:36:43;;;;;;;;;;;;;;;7.41;77.58;101040.66;5111171;28;19959;-68
2023/03/19 01:39:10;;;;;;;;;;;;;;;7.42;77.07;101033.81;5111008;28;19978;-68
2023/03/19 01:41:36;;;;;;;;;;;;;;;7.50;76.89;101032.59;5111268;28;20361;-67
2023/03/19 01:44:01;;;;;;;;;;;;;;;7.58;76.19;101033.03;5111363;28;20002;-66
2023/03/19 01:46:32;;;;;;;;;;;;;;;7.64;76.20;101027.34;5110637;28;19918;-66
2023/03/19 01:48:59;;;;;;;;;;;;;;;7.66;77.21;101034.34;5111171;28;19941;-65
2023/03/19 01:51:44;;;;;;;;;;;;;;;7.69;77.39;101029.41;5110999;28;19912;-67
2023/03/19 01:54:14;;;;;;;;;;;;;;;7.68;77.06;101022.50;5110700;28;19912;-67
2023/03/19 01:56:40;;;;;;;;;;;;;;;7.73;77.04;101025.34;5111030;28;19916;-71
2023/03/19 01:59:10;;;;;;;;;;;;;;;7.72;77.32;101024.44;5111114;28;19912;-70
2023/03/19 02:01:40;;;;;;;;;;;;;;;7.59;77.58;101032.25;5111119;28;19907;-70
2023/03/19 02:04:06;;;;;;;;;;;;;;;7.65;78.29;101027.47;5110939;28;19919;-66
2023/03/19 02:06:31;;;;;;;;;;;;;;;7.63;79.79;101035.84;5111080;28;19961;-70
2023/03/19 02:08:58;;;;;;;;;;;;;;;7.70;80.28;101031.19;5110953;28;19919;-70
2023/03/19 02:11:24;;;;;;;;;;;;;;;7.75;80.95;101029.75;5111074;28;20312;-70
2023/03/19 02:13:50;;;;;;;;;;;;;;;7.82;80.49;101030.13;5110800;28;19918;-67
2023/03/19 02:16:16;;;;;;;;;;;;;;;7.88;80.85;101033.91;5110731;28;19911;-66
2023/03/19 02:18:41;;;;;;;;;;;;;;;7.98;79.30;101031.88;5111044;28;19919;-67
2023/03/19 02:21:13;;;;;;;;;;;;;;;7.99;77.70;101031.03;5110926;28;20072;-67
2023/03/19 02:23:38;;;;;;;;;;;;;;;7.98;77.25;101035.31;5111520;28;20376;-66
2023/03/19 02:26:05;;;;;;;;;;;;;;;7.97;77.13;101037.81;5114629;28;19922;-67
2023/03/19 02:28:31;;;;;;;;;;;;;;;7.87;77.57;101039.84;5114582;28;19918;-68
2023/03/19 02:30:57;;;;;;;;;;;;;;;7.82;78.07;101035.25;5114810;28;19911;-70
2023/03/19 02:33:22;;;;;;;;;;;;;;;7.65;77.92;101036.84;5114516;28;19961;-68
2023/03/19 02:35:49;;;;;;;;;;;;;;;7.54;78.58;101038.78;5114496;28;19916;-67
2023/03/19 02:38:14;;;;;;;;;;;;;;;7.44;79.07;101045.09;5114606;28;19915;-69
2023/03/19 02:40:46;;;;;;;;;;;;;;;7.24;78.90;101054.16;5114262;28;19918;-67
2023/03/19 02:43:12;;;;;;;;;;;;;;;7.18;79.68;101052.13;5114348;28;19911;-70
2023/03/19 02:45:38;;;;;;;;;;;;;;;7.08;79.07;101067.78;5114172;28;20278;-67
2023/03/19 02:48:05;;;;;;;;;;;;;;;7.16;79.21;101055.41;5078063;28;19926;-70
2023/03/19 02:50:30;;;;;;;;;;;;;;;7.25;78.68;101058.50;5114155;28;19911;-68
2023/03/19 02:52:56;;;;;;;;;;;;;;;7.35;77.94;101057.38;5113717;28;19911;-70
2023/03/19 02:55:21;;;;;;;;;;;;;;;7.39;77.59;101062.78;5114040;28;20329;-66
2023/03/19 02:57:46;;;;;;;;;;;;;;;7.48;77.75;101066.69;5113984;28;20266;-67
2023/03/19 03:00:12;;;;;;;;;;;;;;;7.54;78.18;101074.75;5095637;28;19976;-66
2023/03/19 03:02:38;;;;;;;;;;;;;;;7.57;76.37;101078.38;5087578;28;19915;-66
2023/03/19 03:05:05;;;;;;;;;;;;;;;7.63;76.42;101076.97;5113508;28;19920;-69
2023/03/19 03:07:31;;;;;;;;;;;;;;;7.64;76.25;101081.31;5113785;28;19927;-68
2023/03/19 03:09:57;;;;;;;;;;;;;;;7.59;76.13;101087.09;5113640;28;19912;-65
2023/03/19 03:12:22;;;;;;;;;;;;;;;7.55;75.86;101086.81;5077372;28;19934;-69
2023/03/19 03:14:48;;;;;;;;;;;;;;;7.49;76.95;101084.78;5113692;28;20002;-69
2023/03/19 03:17:14;;;;;;;;;;;;;;;7.43;76.42;101090.44;5113444;28;19912;-69
2023/03/19 03:19:39;;;;;;;;;;;;;;;7.36;76.15;101084.84;5113642;28;19919;-70
2023/03/19 03:22:05;;;;;;;;;;;;;;;7.42;76.63;101085.19;5113445;28;19912;-70
2023/03/19 03:24:30;;;;;;;;;;;;;;;7.45;76.40;101086.28;5113279;28;19915;-70
2023/03/19 03:26:56;;;;;;;;;;;;;;;7.50;75.69;101098.50;5060252;28;19924;-69
2023/03/19 03:29:21;;;;;;;;;;;;;;;7.57;75.87;101095.50;5113845;28;20003;-70
2023/03/19 03:31:46;;;;;;;;;;;;;;;7.57;74.17;101091.25;5113578;28;19916;-66
2023/03/19 03:34:12;;;;;;;;;;;;;;;7.50;74.74;101099.41;5113143;28;19919;-69
2023/03/19 03:36:37;;;;;;;;;;;;;;;7.47;74.91;101098.34;5112545;28;19951;-69
2023/03/19 03:39:03;;;;;;;;;;;;;;;7.43;74.83;101097.25;5113273;28;19939;-72
2023/03/19 03:41:28;;;;;;;;;;;;;;;7.37;75.16;101102.03;5113261;28;20321;-71
2023/03/19 03:43:53;;;;;;;;;;;;;;;7.28;75.94;101100.66;5113006;28;19914;-69
2023/03/19 03:46:19;;;;;;;;;;;;;;;7.15;75.93;101105.84;5113284;28;19937;-68
2023/03/19 03:48:44;;;;;;;;;;;;;;;7.07;77.14;101107.06;5113364;28;19915;-70
2023/03/19 03:51:10;;;;;;;;;;;;;;;7.09;76.45;101113.19;5113080;28;19995;-70
2023/03/19 03:53:35;;;;;;;;;;;;;;;7.09;76.24;101111.50;5113186;28;19918;-66
2023/03/19 03:56:01;;;;;;;;;;;;;;;7.17;76.13;101121.38;5113041;28;20297;-67
2023/03/19 03:58:26;;;;;;;;;;;;;;;7.23;75.74;101124.31;5113022;28;20290;-67
2023/03/19 04:00:53;;;;;;;;;;;;;;;7.22;76.08;101123.41;5112712;28;20354;-66
2023/03/19 04:03:18;;;;;;;;;;;;;;;7.22;76.29;101123.41;5112748;28;19922;-66
2023/03/19 04:05:44;;;;;;;;;;;;;;;7.31;76.60;101117.94;5113059;28;19924;-66
2023/03/19 04:08:10;;;;;;;;;;;;;;;7.39;76.44;101111.59;5112729;28;19915;-70
2023/03/19 04:10:39;;;;;;;;;;;;;;;7.43;76.82;101115.25;5112805;28;19935;-67
2023/03/19 04:13:04;;;;;;;;;;;;;;;7.38;76.20;101108.94;5103484;28;19912;-69
2023/03/19 04:15:30;;;;;;;;;;;;;;;7.41;76.36;101109.13;5092097;28;20362;-66
2023/03/19 04:17:55;;;;;;;;;;;;;;;7.43;76.17;101116.13;5092009;28;19934;-66
2023/03/19 04:20:22;;;;;;;;;;;;;;;7.34;75.81;101107.88;5091855;28;19965;-67
2023/03/19 04:22:47;;;;;;;;;;;;;;;7.25;75.78;101110.78;5091795;28;19916;-66
2023/03/19 04:25:13;;;;;;;;;;;;;;;7.29;76.09;101114.41;5091991;28;20394;-70
2023/03/19 04:27:38;;;;;;;;;;;;;;;7.32;75.93;101118.84;5118755;27;19907;-66
2023/03/19 04:30:04;;;;;;;;;;;;;;;7.34;76.17;101128.41;5133131;27;19962;-67
2023/03/19 04:32:29;;;;;;;;;;;;;;;7.20;74.46;101130.16;5133212;27;19907;-70
2023/03/19 04:34:55;;;;;;;;;;;;;;;7.17;74.79;101132.53;5132902;27;19915;-70
2023/03/19 04:37:20;;;;;;;;;;;;;;;7.17;75.02;101131.66;5112525;27;19933;-66
2023/03/19 04:39:45;;;;;;;;;;;;;;;7.16;74.68;101133.31;5112065;28;19920;-66
2023/03/19 04:42:11;;;;;;;;;;;;;;;7.15;73.97;101134.09;5112087;28;19911;-69
2023/03/19 04:44:37;;;;;;;;;;;;;;;7.16;74.12;101137.56;5100494;28;19919;-66
2023/03/19 04:47:03;;;;;;;;;;;;;;;7.09;75.31;101142.31;5091827;28;19919;-69
2023/03/19 04:49:30;;;;;;;;;;;;;;;6.89;75.88;101146.22;5091327;28;19915;-66
2023/03/19 04:51:55;;;;;;;;;;;;;;;6.88;76.60;101144.44;5122704;27;19996;-70
2023/03/19 04:54:20;;;;;;;;;;;;;;;6.90;76.43;101145.44;5132436;27;19973;-70
2023/03/19 04:56:46;;;;;;;;;;;;;;;6.90;76.04;101150.56;5128709;27;20091;-69
2023/03/19 04:59:11;;;;;;;;;;;;;;;6.77;78.33;101153.16;5121463;27;19926;-69
2023/03/19 05:01:37;;;;;;;;;;;;;;;6.75;80.17;101154.72;5118536;27;19965;-66
2023/03/19 05:04:02;;;;;;;;;;;;;;;6.78;81.05;101149.78;5083676;28;19920;-69
2023/03/19 05:06:27;;;;;;;;;;;;;;;6.78;81.47;101154.94;5093909;28;19946;-71
2023/03/19 05:08:53;;;;;;;;;;;;;;;6.68;81.67;101152.53;5110653;28;20004;-70
2023/03/19 05:11:18;;;;;;;;;;;;;;;6.68;82.05;101152.53;5064069;28;19916;-69
2023/03/19 05:13:43;;;;;;;;;;;;;;;6.67;82.66;101158.47;5079539;28;19913;-68
2023/03/19 05:16:09;;;;;;;;;;;;;;;6.64;82.89;101170.31;5086826;28;19916;-69
2023/03/19 05:18:34;;;;;;;;;;;;;;;6.57;82.87;101163.03;5080881;28;19948;-70
2023/03/19 05:20:59;;;;;;;;;;;;;;;6.55;83.06;101169.72;5079783;28;19912;-69
2023/03/19 05:23:25;;;;;;;;;;;;;;;6.60;82.68;101172.59;5076022;28;19912;-69
2023/03/19 05:25:50;;;;;;;;;;;;;;;6.47;82.51;101173.50;5071046;28;20006;-66
2023/03/19 05:28:16;;;;;;;;;;;;;;;6.28;84.73;101176.50;5071017;28;20133;-69
2023/03/19 05:30:42;;;;;;;;;;;;;;;6.30;84.78;101174.94;5071376;28;19908;-72
2023/03/19 05:33:07;;;;;;;;;;;;;;;6.23;84.44;101172.75;5070932;28;20276;-69
2023/03/19 05:35:33;;;;;;;;;;;;;;;6.31;84.15;101176.72;5067196;28;19916;-69
2023/03/19 05:37:58;;;;;;;;;;;;;;;6.36;83.53;101184.72;5071076;28;19916;-69
2023/03/19 05:40:24;;;;;;;;;;;;;;;6.43;82.68;101174.06;5071065;28;20074;-71
2023/03/19 05:42:50;;;;;;;;;;;;;;;6.43;81.85;101177.53;5071111;28;20445;-69
2023/03/19 05:45:16;;;;;;;;;;;;;;;6.46;81.84;101177.72;5051834;28;19908;-67
2023/03/19 05:47:42;;;;;;;;;;;;;;;6.51;81.29;101165.19;5052681;28;19995;-70
2023/03/19 05:50:07;;;;;;;;;;;;;;;6.55;81.54;101169.72;5070678;28;19912;-66
2023/03/19 05:52:32;;;;;;;;;;;;;;;6.59;80.22;101171.72;5070948;28;19920;-70
2023/03/19 05:54:58;;;;;;;;;;;;;;;6.62;79.05;101174.47;5070836;28;20362;-69
2023/03/19 05:57:23;;;;;;;;;;;;;;;6.58;77.90;101176.72;5070834;28;19912;-69
2023/03/19 05:59:49;;;;;;;;;;;;;;;6.55;77.50;101179.09;5073647;28;20337;-69
2023/03/19 06:02:14;;;;;;;;;;;;;;;6.52;77.36;101172.09;5074269;28;20650;-67
2023/03/19 06:04:40;;;;;;;;;;;;;;;6.57;78.15;101170.72;5088858;28;19919;-67
2023/03/19 06:07:05;;;;;;;;;;;;;;;6.53;78.18;101167.84;5094588;28;20406;-66
2023/03/19 06:09:31;;;;;;;;;;;;;;;6.49;78.16;101164.19;5094584;28;19943;-69
2023/03/19 06:11:56;;;;;;;;;;;;;;;6.53;77.92;101167.84;5094527;28;20349;-70
2023/03/19 06:14:22;;;;;;;;;;;;;;;6.54;77.92;101170.53;5094768;28;20255;-70
2023/03/19 06:16:47;;;;;;;;;;;;;;;6.54;77.84;101170.53;5094413;28;20285;-69
2023/03/19 06:19:12;;;;;;;;;;;;;;;6.55;77.35;101174.84;5094476;28;19954;-69
2023/03/19 06:21:38;;;;;;;;;;;;;;;6.53;76.77;101179.00;5094193;28;19961;-70
2023/03/19 06:24:03;;;;;;;;;;;;;;;6.52;76.32;101182.38;5094270;28;20331;-66
2023/03/19 06:26:28;;;;;;;;;;;;;;;6.55;76.81;101176.53;5094237;28;20008;-70
2023/03/19 06:28:54;;;;;;;;;;;;;;;6.58;76.28;101187.88;5094378;28;19911;-70
2023/03/19 06:31:20;;;;;;;;;;;;;;;6.60;78.07;101187.97;5094336;28;19914;-70
2023/03/19 06:33:45;;;;;;;;;;;;;;;6.61;77.30;101202.59;5093834;28;19912;-69
2023/03/19 06:36:10;;;;;;;;;;;;;;;6.63;77.82;101196.78;5094137;28;19912;-66
2023/03/19 06:38:36;;;;;;;;;;;;;;;6.77;78.18;101196.78;5091638;28;20290;-66
2023/03/19 06:41:02;;;;;;;;;;;;;;;6.91;78.91;101195.97;5076178;28;20002;-70
2023/03/19 06:43:27;;;;;;;;;;;;;;;7.07;80.25;101190.13;5075934;28;19912;-66
2023/03/19 06:45:53;;;;;;;;;;;;;;;7.20;78.80;101185.75;5093968;28;20447;-70
2023/03/19 06:48:18;;;;;;;;;;;;;;;7.32;79.19;101181.38;5094196;28;20347;-68
2023/03/19 06:50:46;;;;;;;;;;;;;;;7.35;79.46;101180.66;5094123;28;19916;-67
2023/03/19 06:53:12;;;;;;;;;;;;;;;7.47;81.05;101183.13;5094039;28;19994;-70
2023/03/19 06:55:38;;;;;;;;;;;;;;;7.57;79.62;101177.72;5093887;28;20007;-69
2023/03/19 06:58:04;;;;;;;;;;;;;;;7.71;79.41;101173.41;5093777;28;19935;-69
2023/03/19 07:00:29;;;;;;;;;;;;;;;7.96;77.44;101177.44;5094049;28;20440;-66
2023/03/19 07:02:55;;;;;;;;;;;;;;;7.93;76.07;101181.59;5093518;28;19922;-65
2023/03/19 07:05:20;;;;;;;;;;;;;;;8.00;76.10;101176.81;5093780;28;19939;-68
2023/03/19 07:07:45;;;;;;;;;;;;;;;8.07;75.22;101189.25;5093468;28;20313;-69
2023/03/19 07:10:11;;;;;;;;;;;;;;;8.16;74.43;101174.38;5092452;28;19911;-69
2023/03/19 07:12:39;;;;;;;;;;;;;;;8.42;75.13;101175.88;5093673;28;19919;-69
2023/03/19 07:15:05;;;;;;;;;;;;;;;8.64;73.56;101174.53;5093502;28;19935;-66
2023/03/19 07:17:30;;;;;;;;;;;;;;;8.49;74.61;101173.66;5057324;28;19923;-66
2023/03/19 07:19:56;;;;;;;;;;;;;;;8.61;73.92;101176.94;5093236;28;19911;-70
2023/03/19 07:22:21;;;;;;;;;;;;;;;8.69;75.35;101175.66;5093305;28;20611;-71
2023/03/19 07:24:46;;;;;;;;;;;;;;;8.79;75.55;101177.06;5094741;28;20041;-68
2023/03/19 07:27:12;;;;;;;;;;;;;;;8.88;75.57;101159.56;5099901;28;19911;-69
2023/03/19 07:29:37;;;;;;;;;;;;;;;8.77;74.03;101165.78;5106532;27;19965;-68
2023/03/19 07:32:02;;;;;;;;;;;;;;;8.79;75.60;101165.91;5103974;28;19912;-66
2023/03/19 07:34:28;;;;;;;;;;;;;;;8.88;73.79;101172.44;5103650;28;19929;-70
2023/03/19 07:36:53;;;;;;;;;;;;;;;8.94;73.63;101165.84;5095008;28;19912;-65
2023/03/19 07:39:21;;;;;;;;;;;;;;;9.02;73.16;101159.41;5112802;28;19960;-66
2023/03/19 07:41:47;;;;;;;;;;;;;;;9.15;73.31;101160.97;5112963;28;19916;-65
2023/03/19 07:44:13;;;;;;;;;;;;;;;9.18;73.29;101162.03;5096792;28;20516;-68
2023/03/19 07:46:38;;;;;;;;;;;;;;;9.55;72.99;101168.25;5092666;28;19969;-68
2023/03/19 07:49:03;;;;;;;;;;;;;;;9.70;73.37;101161.28;5097513;28;19927;-69
2023/03/19 07:51:29;;;;;;;;;;;;;;;9.87;76.42;101162.16;5073159;28;20013;-70
2023/03/19 07:53:54;;;;;;;;;;;;;;;9.82;74.99;101158.47;5091977;28;19968;-66
2023/03/19 07:56:20;;;;;;;;;;;;;;;9.95;74.30;101159.97;5091912;28;19992;-68
2023/03/19 07:58:45;;;;;;;;;;;;;;;10.01;73.56;101161.97;5104046;28;19919;-65
2023/03/19 08:01:10;;;;;;;;;;;;;;;10.09;72.61;101159.78;5093891;28;20394;-68
2023/03/19 08:03:36;;;;;;;;;;;;;;;10.26;72.93;101163.22;5091766;28;19983;-69
2023/03/19 08:06:02;;;;;;;;;;;;;;;10.29;74.04;101160.75;5091859;28;19919;-70
2023/03/19 08:08:27;;;;;;;;;;;;;;;10.39;72.47;101156.97;5092147;28;19984;-67
2023/03/19 08:10:53;;;;;;;;;;;;;;;10.40;71.15;101157.03;5106147;28;20007;-70
2023/03/19 08:13:18;;;;;;;;;;;;;;;10.28;70.47;101158.97;5105833;28;19927;-68
2023/03/19 08:15:44;;;;;;;;;;;;;;;10.45;69.65;101163.31;5111903;28;20060;-65
2023/03/19 08:18:09;;;;;;;;;;;;;;;10.59;68.98;101151.09;5093425;28;20028;-67
2023/03/19 08:20:35;;;;;;;;;;;;;;;10.74;69.48;101148.34;5112186;28;19912;-66
2023/03/19 08:23:00;;;;;;;;;;;;;;;10.50;71.17;101148.94;5111756;28;19912;-65
2023/03/19 08:25:26;;;;;;;;;;;;;;;10.58;72.23;101145.84;5112013;28;19912;-65
2023/03/19 08:27:52;;;;;;;;;;;;;;;10.51;70.38;101148.13;5111812;28;19903;-65
2023/03/19 08:30:17;;;;;;;;;;;;;;;10.47;70.85;101143.63;5107957;27;20401;-69
2023/03/19 08:32:45;;;;;;;;;;;;;;;10.79;70.98;101148.53;5101438;27;19907;-65
2023/03/19 08:35:10;;;;;;;;;;;;;;;11.05;69.14;101142.00;5119925;27;19966;-68
2023/03/19 08:37:37;;;;;;;;;;;;;;;11.12;69.41;101143.19;5117647;27;19939;-65
2023/03/19 08:40:03;;;;;;;;;;;;;;;11.25;69.45;101139.44;5120100;27;19968;-68
2023/03/19 08:42:29;;;;;;;;;;;;;;;11.51;72.04;101134.56;5121470;27;19912;-67
2023/03/19 08:44:54;;;;;;;;;;;;;;;11.70;69.15;101141.41;5121295;27;20390;-66
2023/03/19 08:47:23;;;;;;;;;;;;;;;11.60;67.37;101137.53;5122729;27;19915;-67
2023/03/19 08:49:48;;;;;;;;;;;;;;;11.73;68.83;101132.06;5121522;27;20346;-67
2023/03/19 08:52:13;;;;;;;;;;;;;;;11.96;69.57;101133.09;5120987;27;19912;-64
2023/03/19 08:54:39;;;;;;;;;;;;;;;12.20;68.53;101124.56;5122666;27;19911;-66
2023/03/19 08:57:04;;;;;;;;;;;;;;;12.33;66.28;101119.91;5121070;27;19912;-65
2023/03/19 08:59:30;;;;;;;;;;;;;;;12.40;65.88;101122.78;5121538;27;19911;-68
2023/03/19 09:01:55;;;;;;;;;;;;;;;12.44;66.08;101116.03;5107654;27;20393;-66
2023/03/19 09:04:22;;;;;;;;;;;;;;;12.46;66.83;101109.19;5073136;28;20386;-68
2023/03/19 09:06:50;;;;;;;;;;;;;;;12.39;68.91;101114.97;5072436;28;19928;-67
2023/03/19 09:09:19;;;;;;;;;;;;;;;11.94;66.22;101110.53;5081262;28;19916;-64
2023/03/19 09:11:45;;;;;;;;;;;;;;;11.66;68.25;101111.94;5081716;28;19916;-65
2023/03/19 09:14:10;;;;;;;;;;;;;;;12.00;66.16;101110.81;5063604;28;20409;-64
2023/03/19 09:16:36;;;;;;;;;;;;;;;12.21;65.53;101104.72;5081189;28;20012;-67
2023/03/19 09:19:02;;;;;;;;;;;;;;;12.40;64.49;101107.25;5081784;28;19994;-68
2023/03/19 09:21:27;;;;;;;;;;;;;;;12.55;63.92;101106.97;5080038;28;19919;-64
2023/03/19 09:23:52;;;;;;;;;;;;;;;12.71;63.29;101100.69;5080724;28;19985;-68
2023/03/19 09:26:18;;;;;;;;;;;;;;;12.78;62.59;101097.50;5080474;28;19943;-67
2023/03/19 09:28:43;;;;;;;;;;;;;;;12.93;62.65;101097.19;5082780;28;19970;-70
2023/03/19 09:31:10;;;;;;;;;;;;;;;13.17;62.68;101088.56;5090403;28;20293;-67
2023/03/19 09:33:35;;;;;;;;;;;;;;;13.31;61.83;101086.44;5085639;28;19949;-67
2023/03/19 09:36:02;;;;;;;;;;;;;;;13.10;63.21;101082.25;5082836;28;19959;-67
2023/03/19 09:38:28;;;;;;;;;;;;;;;13.23;64.32;101074.91;5090370;28;19955;-66
2023/03/19 09:41:06;;;;;;;;;;;;;;;13.46;65.16;101068.00;5087504;28;19989;-66
2023/03/19 09:43:37;;;;;;;;;;;;;;;13.60;62.18;101068.47;5088697;28;20379;-64
2023/03/19 09:46:05;;;;;;;;;;;;;;;13.81;59.62;101059.66;5087436;28;20044;-65
2023/03/19 09:48:38;;;;;;;;;;;;;;;13.91;59.04;101056.50;5090390;28;19912;-68
2023/03/19 09:51:05;;;;;;;;;;;;;;;13.95;59.55;101055.78;5097679;28;19920;-64
2023/03/19 09:53:31;;;;;;;;;;;;;;;14.20;61.40;101059.16;5100398;28;19912;-65
2023/03/19 09:55:57;;;;;;;;;;;;;;;14.34;62.54;101054.38;5101460;28;19934;-65
2023/03/19 09:58:31;;;;;;;;;;;;;;;14.40;59.35;101054.56;5097146;28;20361;-65
2023/03/19 10:00:58;;;;;;;;;;;;;;;14.63;60.67;101047.50;5082663;28;19923;-68
2023/03/19 10:03:27;;;;;;;;;;;;;;;14.80;57.47;101040.19;5083700;28;19998;-65
2023/03/19 10:06:07;;;;;;;;;;;;;;;14.81;57.88;101039.38;5100163;28;19923;-65
2023/03/19 10:08:42;;;;;;;;;;;;;;;15.00;58.03;101046.00;5100679;28;20376;-64
2023/03/19 10:11:26;;;;;;;;;;;;;;;14.84;58.81;101043.78;5099774;28;20285;-69
2023/03/19 10:13:59;;;;;;;;;;;;;;;14.75;63.02;101038.31;5100848;28;19912;-69
2023/03/19 10:16:26;;;;;;;;;;;;;;;14.97;60.38;101030.28;5099064;28;20650;-68
2023/03/19 10:18:53;;;;;;;;;;;;;;;14.94;60.61;101025.03;5100384;28;19915;-68
2023/03/19 10:21:44;;;;;;;;;;;;;;;14.81;57.37;101020.31;5083080;28;19970;-68
2023/03/19 10:24:13;;;;;;;;;;;;;;;15.16;56.37;101020.41;5017189;28;19920;-67
2023/03/19 10:26:38;;;;;;;;;;;;;;;15.14;59.35;101019.47;5016493;28;19913;-69
2023/03/19 10:29:08;;;;;;;;;;;;;;;14.96;57.29;101018.13;5016258;28;20009;-69
2023/03/19 10:31:34;;;;;;;;;;;;;;;14.97;58.09;101013.81;5038079;28;20018;-71
2023/03/19 10:34:00;;;;;;;;;;;;;;;15.10;57.55;101004.63;5036132;28;19917;-70
2023/03/19 10:36:26;;;;;;;;;;;;;;;14.97;57.43;100993.03;5034261;28;19923;-69
2023/03/19 10:38:51;;;;;;;;;;;;;;;14.97;58.48;100991.28;5027592;28;19913;-69
2023/03/19 10:41:20;;;;;;;;;;;;;;;15.31;56.13;100989.56;5027436;28;19917;-69
2023/03/19 10:43:50;;;;;;;;;;;;;;;15.57;55.62;100986.75;5010662;28;19913;-69
2023/03/19 10:46:16;;;;;;;;;;;;;;;15.90;56.08;100990.16;5030782;28;19920;-69
2023/03/19 10:48:43;;;;;;;;;;;;;;;15.62;57.20;100979.94;5030726;28;19936;-69
2023/03/19 10:51:13;;;;;;;;;;;;;;;15.37;60.13;100974.13;5031259;28;19939;-69
2023/03/19 10:53:38;;;;;;;;;;;;;;;15.39;59.80;100975.88;5030983;28;19917;-69
2023/03/19 10:56:06;;;;;;;;;;;;;;;15.76;56.09;100976.78;5030860;28;19921;-69
2023/03/19 10:58:34;;;;;;;;;;;;;;;16.04;55.07;100967.94;5030859;28;19913;-69
2023/03/19 11:01:08;;;;;;;;;;;;;;;16.12;54.89;100965.50;5073005;28;20053;-69
2023/03/19 11:03:37;;;;;;;;;;;;;;;16.26;53.60;100960.59;5113877;28;19930;-69
2023/03/19 11:06:03;;;;;;;;;;;;;;;16.55;53.08;100950.78;5113787;28;20436;-65
2023/03/19 11:08:31;;;;;;;;;;;;;;;16.75;52.22;100943.34;5113762;28;20014;-65
2023/03/19 11:10:56;;;;;;;;;;;;;;;16.79;52.85;100944.28;5113238;28;19911;-68
2023/03/19 11:13:24;;;;;;;;;;;;;;;16.74;52.37;100943.31;5113645;28;19965;-67
2023/03/19 11:15:51;;;;;;;;;;;;;;;16.89;52.54;100932.31;5113396;28;20448;-69
2023/03/19 11:18:23;;;;;;;;;;;;;;;16.98;55.03;100927.28;5113686;28;19912;-71
2023/03/19 11:20:58;;;;;;;;;;;;;;;17.17;51.81;100925.88;5113649;28;19988;-69
2023/03/19 11:23:26;;;;;;;;;;;;;;;16.28;53.85;100923.28;5113243;28;19912;-68
2023/03/19 11:25:54;;;;;;;;;;;;;;;16.22;54.83;100917.94;5113557;28;20377;-68
2023/03/19 11:28:25;;;;;;;;;;;;;;;16.49;54.21;100914.16;5113195;28;19912;-69
2023/03/19 11:31:09;;;;;;;;;;;;;;;16.70;52.47;100897.16;5113356;28;19923;-68
2023/03/19 11:33:37;;;;;;;;;;;;;;;16.80;52.34;100907.81;5113487;28;19912;-69
2023/03/19 11:36:21;;;;;;;;;;;;;;;17.03;51.51;100899.53;5113273;28;19911;-69
2023/03/19 11:38:59;;;;;;;;;;;;;;;16.86;54.05;100907.06;5113136;28;19938;-69
2023/03/19 11:41:30;;;;;;;;;;;;;;;17.10;51.30;100895.31;5113259;28;19961;-69
2023/03/19 11:43:58;;;;;;;;;;;;;;;17.39;51.72;100897.53;5113002;28;19961;-68
2023/03/19 11:46:24;;;;;;;;;;;;;;;17.48;49.04;100891.56;5112764;28;19915;-68
2023/03/19 11:48:58;;;;;;;;;;;;;;;17.22;48.85;100892.91;5107446;28;19916;-69
2023/03/19 11:51:39;;;;;;;;;;;;;;;17.50;51.52;100884.66;5104514;28;19907;-68
2023/03/19 11:54:04;;;;;;;;;;;;;;;17.68;48.59;100878.81;5112664;28;19912;-69
2023/03/19 11:56:34;;;;;;;;;;;;;;;17.77;49.67;100874.59;5112234;28;19912;-69
2023/03/19 11:59:09;;;;;;;;;;;;;;;17.09;50.55;100876.16;5076370;28;19912;-69
2023/03/19 12:01:53;;;;;;;;;;;;;;;16.93;51.08;100874.16;5094527;28;19912;-69
2023/03/19 12:04:37;;;;;;;;;;;;;;;16.76;52.47;100879.03;5093944;28;20298;-69
2023/03/19 12:07:08;;;;;;;;;;;;;;;17.02;51.05;100871.69;5112327;28;19926;-69
2023/03/19 12:09:59;;;;;;;;;;;;;;;17.05;50.72;100871.75;5112740;28;19915;-69
2023/03/19 12:12:37;;;;;;;;;;;;;;;17.24;50.39;100870.31;5112711;28;19968;-68
2023/03/19 12:15:08;;;;;;;;;;;;;;;17.55;49.29;100870.78;5112673;28;19960;-69
2023/03/19 12:17:40;;;;;;;;;;;;;;;17.48;48.54;100862.84;5112295;28;19922;-68
2023/03/19 12:20:14;;;;;;;;;;;;;;;17.60;49.53;100863.91;5112463;28;19912;-68
2023/03/19 12:22:58;;;;;;;;;;;;;;;17.83;48.12;100860.75;5112448;28;19907;-69
2023/03/19 12:25:42;;;;;;;;;;;;;;;17.99;50.38;100858.38;5112335;28;20385;-69
2023/03/19 12:28:28;;;;;;;;;;;;;;;17.98;47.76;100856.59;5111989;28;19908;-69
2023/03/19 12:30:59;;;;;;;;;;;;;;;17.60;49.55;100855.22;5111925;28;19919;-69
2023/03/19 12:33:35;;;;;;;;;;;;;;;17.45;49.56;100843.66;5112212;28;19916;-69
2023/03/19 12:36:02;;;;;;;;;;;;;;;17.19;50.35;100840.66;5112086;28;19912;-69
2023/03/19 12:38:27;;;;;;;;;;;;;;;17.29;50.10;100841.69;5112055;28;19984;-69
2023/03/19 12:40:57;;;;;;;;;;;;;;;17.45;49.35;100846.28;5111894;28;20353;-69
2023/03/19 12:43:29;;;;;;;;;;;;;;;17.48;49.35;100837.63;5111927;28;19991;-68